createdAt,value
2019-04-27T00:01:33.829Z,94.60
2019-04-27T00:04:23.568Z,94.90
2019-04-27T00:07:02.981Z,94.80
2019-04-27T00:09:51.474Z,94.90
2019-04-27T00:12:26.375Z,95.20
2019-04-27T00:14:55.033Z,95.40
2019-04-27T00:17:48.693Z,95.40
2019-04-27T00:20:18.102Z,95.60
2019-04-27T00:22:53.517Z,96.10
2019-04-27T00:25:23.073Z,96.40
2019-04-27T00:27:53.525Z,96.50
2019-04-27T00:30:23.460Z,96.80
2019-04-27T00:32:53.614Z,96.90
2019-04-27T00:35:24.746Z,97.00
2019-04-27T00:38:13.821Z,97.30
2019-04-27T00:40:44.780Z,97.30
2019-04-27T00:43:14.053Z,97.60
2019-04-27T00:45:43.729Z,97.70
2019-04-27T00:48:14.063Z,97.80
2019-04-27T00:50:43.934Z,98.00
2019-04-27T00:53:20.341Z,98.10
2019-04-27T00:55:51.384Z,98.60
2019-04-27T00:58:25.023Z,98.20
2019-04-27T01:01:12.713Z,98.30
2019-04-27T01:03:46.756Z,98.50
2019-04-27T01:06:16.160Z,98.50
2019-04-27T01:08:45.483Z,98.40
2019-04-27T01:11:14.805Z,98.20
2019-04-27T01:13:44.106Z,98.40
2019-04-27T01:16:17.343Z,98.20
2019-04-27T01:18:44.676Z,98.30
2019-04-27T01:21:15.098Z,98.30
2019-04-27T01:23:45.378Z,98.30
2019-04-27T01:26:18.990Z,98.30
2019-04-27T01:28:49.921Z,98.30
2019-04-27T01:31:20.803Z,98.20
2019-04-27T01:33:51.229Z,98.20
2019-04-27T01:36:20.536Z,97.90
2019-04-27T01:38:49.869Z,98.00
2019-04-27T01:41:19.371Z,98.00
2019-04-27T01:43:49.128Z,97.90
2019-04-27T01:46:19.594Z,97.80
2019-04-27T01:48:49.172Z,97.90
2019-04-27T01:51:20.798Z,97.90
2019-04-27T01:53:49.486Z,97.90
2019-04-27T01:56:19.576Z,98.00
2019-04-27T01:58:49.483Z,97.80
2019-04-27T02:01:38.872Z,97.60
2019-04-27T02:04:24.966Z,97.40
2019-04-27T02:07:02.125Z,97.60
2019-04-27T02:09:31.602Z,97.50
2019-04-27T02:12:01.702Z,97.50
2019-04-27T02:14:31.750Z,97.60
2019-04-27T02:17:01.575Z,97.70
2019-04-27T02:19:31.908Z,97.70
2019-04-27T02:22:01.939Z,97.60
2019-04-27T02:24:31.649Z,97.50
2019-04-27T02:27:01.758Z,97.40
2019-04-27T02:29:35.974Z,97.40
2019-04-27T02:32:06.937Z,97.40
2019-04-27T02:34:46.602Z,97.40
2019-04-27T02:37:15.933Z,97.50
2019-04-27T02:39:45.196Z,97.50
2019-04-27T02:42:14.525Z,97.60
2019-04-27T02:44:43.896Z,97.60
2019-04-27T02:47:13.188Z,97.70
2019-04-27T02:49:42.495Z,97.70
2019-04-27T02:52:16.245Z,98.00
2019-04-27T02:54:45.598Z,98.10
2019-04-27T02:57:14.894Z,98.20
2019-04-27T02:59:44.203Z,98.30
2019-04-27T03:02:24.174Z,98.30
2019-04-27T03:04:53.486Z,98.40
2019-04-27T03:07:22.784Z,98.40
2019-04-27T03:09:52.097Z,98.50
2019-04-27T03:12:23.066Z,98.60
2019-04-27T03:15:02.660Z,98.60
2019-04-27T03:17:42.783Z,98.80
2019-04-27T03:20:13.856Z,98.90
2019-04-27T03:22:44.808Z,98.80
2019-04-27T03:25:19.921Z,99.10
2019-04-27T03:27:50.422Z,99.10
2019-04-27T03:30:23.088Z,99.10
2019-04-27T03:32:56.992Z,99.10
2019-04-27T03:35:23.194Z,99.00
2019-04-27T03:37:52.894Z,99.00
2019-04-27T03:40:22.200Z,99.00
2019-04-27T03:42:53.139Z,99.10
2019-04-27T03:45:22.451Z,99.10
2019-04-27T03:47:51.747Z,99.20
2019-04-27T03:50:25.654Z,99.30
2019-04-27T03:53:05.789Z,99.60
2019-04-27T03:55:42.877Z,99.20
2019-04-27T03:58:14.021Z,99.20
2019-04-27T04:00:45.135Z,99.30
2019-04-27T04:03:14.735Z,99.50
2019-04-27T04:05:44.272Z,99.40
2019-04-27T04:08:13.648Z,99.40
2019-04-27T04:10:49.437Z,99.40
2019-04-27T04:13:22.566Z,99.40
2019-04-27T04:16:07.497Z,99.60
2019-04-27T04:18:53.259Z,99.50
2019-04-27T04:21:22.578Z,99.50
2019-04-27T04:23:51.869Z,99.40
2019-04-27T04:26:21.267Z,99.30
2019-04-27T04:28:50.646Z,99.30
2019-04-27T04:31:20.998Z,99.30
2019-04-27T04:33:50.655Z,99.10
2019-04-27T04:36:21.907Z,99.40
2019-04-27T04:38:51.488Z,98.80
2019-04-27T04:41:43.532Z,98.70
2019-04-27T04:44:25.526Z,98.70
2019-04-27T04:46:56.471Z,98.30
2019-04-27T04:49:25.778Z,98.30
2019-04-27T04:51:55.072Z,97.80
2019-04-27T04:54:24.872Z,97.60
2019-04-27T04:56:54.371Z,97.90
2019-04-27T04:59:23.655Z,97.30
2019-04-27T05:01:52.969Z,97.30
2019-04-27T05:04:22.278Z,97.30
2019-04-27T05:06:51.562Z,97.10
2019-04-27T05:09:20.992Z,97.10
2019-04-27T05:11:50.412Z,97.10
2019-04-27T05:14:20.041Z,96.90
2019-04-27T05:16:50.442Z,97.10
2019-04-27T05:19:19.734Z,97.20
2019-04-27T05:21:50.019Z,97.30
2019-04-27T05:24:19.404Z,97.10
2019-04-27T05:26:48.816Z,97.20
2019-04-27T05:29:19.173Z,97.30
2019-04-27T05:31:49.095Z,97.50
2019-04-27T05:34:19.728Z,97.30
2019-04-27T05:36:52.316Z,97.20
2019-04-27T05:39:24.744Z,97.20
2019-04-27T05:41:50.413Z,97.30
2019-04-27T05:44:24.435Z,97.60
2019-04-27T05:46:58.801Z,97.60
2019-04-27T05:49:44.386Z,97.70
2019-04-27T05:52:29.417Z,98.00
2019-04-27T05:54:59.248Z,98.20
2019-04-27T05:57:31.487Z,98.60
2019-04-27T06:00:02.170Z,98.90
2019-04-27T06:02:32.708Z,99.10
2019-04-27T06:05:02.030Z,99.20
2019-04-27T06:07:31.430Z,99.60
2019-04-27T06:10:00.735Z,99.50
2019-04-27T06:12:30.029Z,99.40
2019-04-27T06:15:00.357Z,99.30
2019-04-27T06:17:30.203Z,99.40
2019-04-27T06:20:00.517Z,99.30
2019-04-27T06:22:29.814Z,99.20
2019-04-27T06:25:00.171Z,99.50
2019-04-27T06:27:31.121Z,99.50
2019-04-27T06:30:00.669Z,99.50
2019-04-27T06:32:29.900Z,99.80
2019-04-27T06:35:00.174Z,99.70
2019-04-27T06:37:29.642Z,99.70
2019-04-27T06:39:59.757Z,99.90
2019-04-27T06:42:30.229Z,99.70
2019-04-27T06:45:00.033Z,99.80
2019-04-27T06:47:29.720Z,99.60
2019-04-27T06:49:59.064Z,99.80
2019-04-27T06:52:29.232Z,99.80
2019-04-27T06:55:00.471Z,99.90
2019-04-27T06:57:30.860Z,99.90
2019-04-27T07:00:00.154Z,99.90
2019-04-27T07:02:29.469Z,99.90
2019-04-27T07:05:00.316Z,99.90
2019-04-27T07:07:30.637Z,99.90
2019-04-27T07:09:59.942Z,99.90
2019-04-27T07:12:29.243Z,99.90
2019-04-27T07:14:59.515Z,99.90
2019-04-27T07:17:29.156Z,99.90
2019-04-27T07:19:59.505Z,99.90
2019-04-27T07:22:30.100Z,99.90
2019-04-27T07:25:00.413Z,99.90
2019-04-27T07:27:29.711Z,99.90
2019-04-27T07:30:01.411Z,99.90
2019-04-27T07:32:31.330Z,99.90
2019-04-27T07:35:00.702Z,99.90
2019-04-27T07:37:30.054Z,99.90
2019-04-27T07:39:59.391Z,99.90
2019-04-27T07:42:31.494Z,99.90
2019-04-27T07:45:03.961Z,99.90
2019-04-27T07:47:34.336Z,99.90
2019-04-27T07:50:04.084Z,99.90
2019-04-27T07:52:33.421Z,99.90
2019-04-27T07:55:02.727Z,99.90
2019-04-27T07:57:32.052Z,99.90
2019-04-27T08:00:01.372Z,99.90
2019-04-27T08:02:31.322Z,99.90
2019-04-27T08:05:00.633Z,99.90
2019-04-27T08:07:29.967Z,99.90
2019-04-27T08:10:01.692Z,99.90
2019-04-27T08:12:30.325Z,99.90
2019-04-27T08:15:00.142Z,99.90
2019-04-27T08:17:30.214Z,99.90
2019-04-27T08:20:00.709Z,99.90
2019-04-27T08:22:30.307Z,99.90
2019-04-27T08:24:59.672Z,99.90
2019-04-27T08:27:39.460Z,99.90
2019-04-27T08:30:22.857Z,99.90
2019-04-27T08:32:56.610Z,99.90
2019-04-27T08:35:25.942Z,99.90
2019-04-27T08:37:55.246Z,99.90
2019-04-27T08:40:24.642Z,99.90
2019-04-27T08:42:55.655Z,99.90
2019-04-27T08:45:24.961Z,99.90
2019-04-27T08:47:54.321Z,99.90
2019-04-27T08:50:23.617Z,99.90
2019-04-27T08:52:52.942Z,99.90
2019-04-27T08:55:22.267Z,99.90
2019-04-27T08:57:51.594Z,99.90
2019-04-27T09:00:21.434Z,99.90
2019-04-27T09:02:50.751Z,99.90
2019-04-27T09:05:26.043Z,99.90
2019-04-27T09:08:13.812Z,99.90
2019-04-27T09:10:58.913Z,99.90
2019-04-27T09:13:32.879Z,99.90
2019-04-27T09:16:06.694Z,99.90
2019-04-27T09:18:36.063Z,99.90
2019-04-27T09:21:05.617Z,99.90
2019-04-27T09:23:34.945Z,99.90
2019-04-27T09:26:04.250Z,99.90
2019-04-27T09:28:33.541Z,99.90
2019-04-27T09:31:03.004Z,99.90
2019-04-27T09:33:32.318Z,99.90
2019-04-27T09:36:01.641Z,99.90
2019-04-27T09:38:30.946Z,99.90
2019-04-27T09:41:01.925Z,99.90
2019-04-27T09:43:31.286Z,99.90
2019-04-27T09:46:02.128Z,99.90
2019-04-27T09:48:30.842Z,99.90
2019-04-27T09:51:00.358Z,99.90
2019-04-27T09:53:29.673Z,99.90
2019-04-27T09:55:59.950Z,99.90
2019-04-27T09:58:29.258Z,99.90
2019-04-27T10:00:58.618Z,99.90
2019-04-27T10:03:29.819Z,99.90
2019-04-27T10:05:59.154Z,99.90
2019-04-27T10:08:28.449Z,99.90
2019-04-27T10:10:57.771Z,99.90
2019-04-27T10:13:27.586Z,99.90
2019-04-27T10:15:58.182Z,99.90
2019-04-27T10:18:29.081Z,99.90
2019-04-27T10:21:01.909Z,99.90
2019-04-27T10:23:29.403Z,99.90
2019-04-27T10:25:58.690Z,99.90
2019-04-27T10:28:28.034Z,99.90
2019-04-27T10:30:57.390Z,99.90
2019-04-27T10:33:27.591Z,99.80
2019-04-27T10:35:56.914Z,99.40
2019-04-27T10:38:26.250Z,99.90
2019-04-27T10:40:55.644Z,99.90
2019-04-27T10:43:25.886Z,99.90
2019-04-27T10:45:56.532Z,99.90
2019-04-27T10:48:26.667Z,99.90
2019-04-27T10:50:56.122Z,99.90
2019-04-27T10:53:26.940Z,99.90
2019-04-27T10:55:56.748Z,99.90
2019-04-27T10:58:27.297Z,99.90
2019-04-27T11:00:58.798Z,99.90
2019-04-27T11:03:46.206Z,99.90
2019-04-27T11:06:23.391Z,99.90
2019-04-27T11:08:52.705Z,99.90
2019-04-27T11:11:22.074Z,99.90
2019-04-27T11:13:51.369Z,99.90
2019-04-27T11:16:20.654Z,99.90
2019-04-27T11:18:51.063Z,99.90
2019-04-27T11:21:20.457Z,99.90
2019-04-27T11:23:49.740Z,99.90
2019-04-27T11:26:19.054Z,99.90
2019-04-27T11:28:48.349Z,99.90
2019-04-27T11:31:17.689Z,99.90
2019-04-27T11:33:47.018Z,99.90
2019-04-27T11:36:20.755Z,99.40
2019-04-27T11:38:51.757Z,99.90
2019-04-27T11:41:21.056Z,99.90
2019-04-27T11:43:50.366Z,99.90
2019-04-27T11:46:19.758Z,99.90
2019-04-27T11:48:49.066Z,99.40
2019-04-27T11:51:19.931Z,99.90
2019-04-27T11:53:48.433Z,99.90
2019-04-27T11:56:17.859Z,99.60
2019-04-27T11:58:48.846Z,98.40
2019-04-27T12:01:18.296Z,99.50
2019-04-27T12:03:47.620Z,98.80
2019-04-27T12:06:16.981Z,97.20
2019-04-27T12:08:46.293Z,94.50
2019-04-27T12:11:16.059Z,93.60
2019-04-27T12:13:46.138Z,92.80
2019-04-27T12:16:17.459Z,92.90
2019-04-27T12:18:48.902Z,92.40
2019-04-27T12:21:17.626Z,92.00
2019-04-27T12:23:47.301Z,91.40
2019-04-27T12:26:26.775Z,92.30
2019-04-27T12:28:56.845Z,92.10
2019-04-27T12:31:27.787Z,92.80
2019-04-27T12:33:57.075Z,92.00
2019-04-27T12:36:26.454Z,92.00
2019-04-27T12:38:56.642Z,92.00
2019-04-27T12:41:26.902Z,87.30
2019-04-27T12:43:56.226Z,82.90
2019-04-27T12:46:25.584Z,83.40
2019-04-27T12:48:57.088Z,81.00
2019-04-27T12:51:26.074Z,76.20
2019-04-27T12:53:57.016Z,71.30
2019-04-27T12:56:28.015Z,67.50
2019-04-27T12:59:04.092Z,66.10
2019-04-27T13:01:33.968Z,65.90
2019-04-27T13:04:04.251Z,68.40
2019-04-27T13:06:35.821Z,67.40
2019-04-27T13:09:07.234Z,67.20
2019-04-27T13:11:36.707Z,67.80
2019-04-27T13:14:07.129Z,67.30
2019-04-27T13:16:36.420Z,63.90
2019-04-27T13:19:06.142Z,64.50
2019-04-27T13:21:36.565Z,62.00
2019-04-27T13:24:07.019Z,60.50
2019-04-27T13:26:38.003Z,60.80
2019-04-27T13:29:07.458Z,59.60
2019-04-27T13:31:37.017Z,63.10
2019-04-27T13:34:06.311Z,64.10
2019-04-27T13:36:36.783Z,65.10
2019-04-27T13:39:06.862Z,65.10
2019-04-27T13:41:36.503Z,65.60
2019-04-27T13:44:06.706Z,67.80
2019-04-27T13:46:56.017Z,70.70
2019-04-27T13:49:43.120Z,75.20
2019-04-27T13:52:14.045Z,77.40
2019-04-27T13:54:45.759Z,79.60
2019-04-27T13:57:16.412Z,86.00
2019-04-27T13:59:46.236Z,90.00
2019-04-27T14:02:15.974Z,91.70
2019-04-27T14:04:45.626Z,93.40
2019-04-27T14:07:14.959Z,93.10
2019-04-27T14:09:44.245Z,91.50
2019-04-27T14:12:18.798Z,90.10
2019-04-27T14:14:49.023Z,90.30
2019-04-27T14:17:19.309Z,88.00
2019-04-27T14:19:49.881Z,88.00
2019-04-27T14:22:19.299Z,85.40
2019-04-27T14:24:48.871Z,77.80
2019-04-27T14:27:20.008Z,78.70
2019-04-27T14:29:49.352Z,78.50
2019-04-27T14:32:19.225Z,73.70
2019-04-27T14:34:50.399Z,70.80
2019-04-27T14:37:19.528Z,71.90
2019-04-27T14:39:49.826Z,70.60
2019-04-27T14:42:19.280Z,71.10
2019-04-27T14:44:49.074Z,71.70
2019-04-27T14:47:18.885Z,70.00
2019-04-27T14:49:49.096Z,71.90
2019-04-27T14:52:19.018Z,74.40
2019-04-27T14:54:50.893Z,82.00
2019-04-27T14:57:20.419Z,87.50
2019-04-27T14:59:49.973Z,91.00
2019-04-27T15:02:19.412Z,92.60
2019-04-27T15:04:48.880Z,93.40
2019-04-27T15:07:18.178Z,93.10
2019-04-27T15:09:49.633Z,93.50
2019-04-27T15:12:18.500Z,91.30
2019-04-27T15:14:47.824Z,90.40
2019-04-27T15:17:17.564Z,87.60
2019-04-27T15:19:52.687Z,85.00
2019-04-27T15:22:23.116Z,88.20
2019-04-27T15:25:06.473Z,81.60
2019-04-27T15:27:25.653Z,83.80
2019-04-27T15:29:55.863Z,81.60
2019-04-27T15:32:27.606Z,82.30
2019-04-27T15:35:10.039Z,80.20
2019-04-27T15:37:43.046Z,79.90
2019-04-27T15:40:29.260Z,78.70
2019-04-27T15:43:01.166Z,78.20
2019-04-27T15:45:30.492Z,78.00
2019-04-27T15:47:59.830Z,77.20
2019-04-27T15:50:32.243Z,78.90
2019-04-27T15:53:02.860Z,77.60
2019-04-27T15:55:35.101Z,78.90
2019-04-27T15:58:02.133Z,78.30
2019-04-27T16:00:32.474Z,77.90
2019-04-27T16:03:01.766Z,78.30
2019-04-27T16:05:33.313Z,78.50
2019-04-27T16:08:06.125Z,78.20
2019-04-27T16:10:32.702Z,80.90
2019-04-27T16:13:06.929Z,83.00
2019-04-27T16:15:34.442Z,81.40
2019-04-27T16:18:03.816Z,82.50
2019-04-27T16:20:34.069Z,84.90
2019-04-27T16:23:04.397Z,87.90
2019-04-27T16:25:46.069Z,88.10
2019-04-27T16:28:09.719Z,87.50
2019-04-27T16:30:36.190Z,86.60
2019-04-27T16:33:05.558Z,85.90
2019-04-27T16:35:34.886Z,86.30
2019-04-27T16:38:10.088Z,82.90
2019-04-27T16:40:39.426Z,82.20
2019-04-27T16:43:09.065Z,80.20
2019-04-27T16:45:38.888Z,81.10
2019-04-27T16:48:09.113Z,81.70
2019-04-27T16:50:39.069Z,82.10
2019-04-27T16:53:12.096Z,82.60
2019-04-27T16:55:39.552Z,83.20
2019-04-27T16:58:15.770Z,84.10
2019-04-27T17:00:41.113Z,84.30
2019-04-27T17:03:10.690Z,83.60
2019-04-27T17:05:39.976Z,84.90
2019-04-27T17:08:14.275Z,85.20
2019-04-27T17:10:40.383Z,84.80
2019-04-27T17:13:14.317Z,84.70
2019-04-27T17:15:54.917Z,83.80
2019-04-27T17:18:26.085Z,83.90
2019-04-27T17:21:00.118Z,85.40
2019-04-27T17:23:31.275Z,84.80
2019-04-27T17:26:04.426Z,85.80
2019-04-27T17:28:37.573Z,85.60
2019-04-27T17:31:08.540Z,85.50
2019-04-27T17:33:39.207Z,87.70
2019-04-27T17:36:12.053Z,86.50
2019-04-27T17:38:42.639Z,86.50
2019-04-27T17:41:12.610Z,88.30
2019-04-27T17:43:41.547Z,88.20
2019-04-27T17:46:11.525Z,88.50
2019-04-27T17:48:41.800Z,88.50
2019-04-27T17:51:11.115Z,89.00
2019-04-27T17:53:40.410Z,89.00
2019-04-27T17:56:09.761Z,89.10
2019-04-27T17:58:39.637Z,89.90
2019-04-27T18:01:13.910Z,89.50
2019-04-27T18:03:42.013Z,91.40
2019-04-27T18:06:11.316Z,94.40
2019-04-27T18:08:41.565Z,96.20
2019-04-27T18:11:11.675Z,97.60
2019-04-27T18:13:42.146Z,98.50
2019-04-27T18:16:11.550Z,99.10
2019-04-27T18:18:42.528Z,99.90
2019-04-27T18:21:11.525Z,99.90
2019-04-27T18:23:49.073Z,99.90
2019-04-27T18:26:19.278Z,99.90
2019-04-27T18:28:53.734Z,99.90
2019-04-27T18:31:21.559Z,99.90
2019-04-27T18:33:50.970Z,99.90
2019-04-27T18:36:20.266Z,99.90
2019-04-27T18:38:49.760Z,99.90
2019-04-27T18:41:19.072Z,99.90
2019-04-27T18:43:52.206Z,99.90
2019-04-27T18:46:24.501Z,99.90
2019-04-27T18:48:54.149Z,99.90
2019-04-27T18:51:26.376Z,99.90
2019-04-27T18:53:59.710Z,99.90
2019-04-27T18:56:29.068Z,99.90
2019-04-27T18:58:59.985Z,99.90
2019-04-27T19:01:29.551Z,99.90
2019-04-27T19:03:58.997Z,99.90
2019-04-27T19:06:28.995Z,99.90
2019-04-27T19:08:59.136Z,99.90
2019-04-27T19:11:29.163Z,99.90
2019-04-27T19:13:59.122Z,99.90
2019-04-27T19:16:29.230Z,99.90
2019-04-27T19:18:58.804Z,99.90
2019-04-27T19:21:28.909Z,99.90
2019-04-27T19:23:58.751Z,99.90
2019-04-27T19:26:42.189Z,99.90
2019-04-27T19:29:16.024Z,99.90
2019-04-27T19:31:48.409Z,99.90
2019-04-27T19:34:18.209Z,99.90
2019-04-27T19:36:48.870Z,99.90
2019-04-27T19:39:18.532Z,99.90
2019-04-27T19:41:59.979Z,99.90
2019-04-27T19:44:19.089Z,99.90
2019-04-27T19:46:49.219Z,99.90
2019-04-27T19:49:19.378Z,99.90
2019-04-27T19:51:49.146Z,99.90
2019-04-27T19:54:18.567Z,99.90
2019-04-27T19:56:49.903Z,99.90
2019-04-27T19:59:23.176Z,99.90
2019-04-27T20:01:54.138Z,99.90
2019-04-27T20:04:26.049Z,99.90
2019-04-27T20:06:55.345Z,99.90
2019-04-27T20:09:26.283Z,99.90
2019-04-27T20:11:55.776Z,99.90
2019-04-27T20:14:25.169Z,99.90
2019-04-27T20:16:54.480Z,99.90
2019-04-27T20:19:23.785Z,99.90
2019-04-27T20:21:53.098Z,99.90
2019-04-27T20:24:22.844Z,99.90
2019-04-27T20:26:52.294Z,99.90
2019-04-27T20:29:21.860Z,99.90
2019-04-27T20:31:51.317Z,99.90
2019-04-27T20:34:20.927Z,99.90
2019-04-27T20:36:52.607Z,99.90
2019-04-27T20:39:22.088Z,99.90
2019-04-27T20:41:51.417Z,99.90
2019-04-27T20:44:21.105Z,99.90
2019-04-27T20:46:51.331Z,99.90
2019-04-27T20:49:21.762Z,99.90
2019-04-27T20:51:53.675Z,99.90
2019-04-27T20:54:23.472Z,99.90
2019-04-27T20:56:53.948Z,99.90
2019-04-27T20:59:23.799Z,99.90
2019-04-27T21:01:53.122Z,99.90
2019-04-27T21:04:27.133Z,99.90
2019-04-27T21:06:58.122Z,99.90
2019-04-27T21:09:27.421Z,99.90
2019-04-27T21:11:56.705Z,99.90
2019-04-27T21:14:26.013Z,99.90
2019-04-27T21:16:55.326Z,99.90
2019-04-27T21:19:24.706Z,99.90
2019-04-27T21:21:54.025Z,99.90
2019-04-27T21:24:23.422Z,99.90
2019-04-27T21:26:52.711Z,99.90
2019-04-27T21:29:22.495Z,99.90
2019-04-27T21:31:52.072Z,99.90
2019-04-27T21:34:21.471Z,99.90
2019-04-27T21:36:51.138Z,99.90
2019-04-27T21:39:21.770Z,99.90
2019-04-27T21:41:51.854Z,99.90
2019-04-27T21:44:21.794Z,99.90
2019-04-27T21:46:52.033Z,99.90
2019-04-27T21:49:22.904Z,99.90
2019-04-27T21:52:02.905Z,99.90
2019-04-27T21:54:33.895Z,99.90
2019-04-27T21:57:03.192Z,99.90
2019-04-27T21:59:32.591Z,99.90
2019-04-27T22:02:03.591Z,99.90
2019-04-27T22:04:32.183Z,99.90
2019-04-27T22:07:01.673Z,99.90
2019-04-27T22:09:30.994Z,99.90
2019-04-27T22:12:00.500Z,99.90
2019-04-27T22:14:31.356Z,99.90
2019-04-27T22:17:00.930Z,99.90
2019-04-27T22:19:31.136Z,99.90
2019-04-27T22:22:02.238Z,99.60
2019-04-27T22:24:33.189Z,99.70
2019-04-27T22:27:02.494Z,99.80
2019-04-27T22:29:32.205Z,99.60
2019-04-27T22:32:01.831Z,99.60
2019-04-27T22:34:31.322Z,99.80
2019-04-27T22:37:02.523Z,99.70
2019-04-27T22:39:42.340Z,99.20
2019-04-27T22:42:31.283Z,99.20
2019-04-27T22:45:02.154Z,99.00
2019-04-27T22:47:33.097Z,99.20
2019-04-27T22:50:02.741Z,99.30
2019-04-27T22:52:32.023Z,99.40
2019-04-27T22:55:02.312Z,99.40
2019-04-27T22:57:33.326Z,98.40
2019-04-27T23:00:06.951Z,98.40
2019-04-27T23:02:40.823Z,98.50
2019-04-27T23:05:10.865Z,98.70
2019-04-27T23:07:41.497Z,97.90
2019-04-27T23:10:11.314Z,97.90
2019-04-27T23:12:41.944Z,98.00
2019-04-27T23:15:13.097Z,98.40
2019-04-27T23:17:51.670Z,98.10
2019-04-27T23:20:20.910Z,98.00
2019-04-27T23:22:50.214Z,97.60
2019-04-27T23:25:19.528Z,97.30
2019-04-27T23:27:48.829Z,97.00
2019-04-27T23:30:19.124Z,96.70
2019-04-27T23:32:51.439Z,96.50
2019-04-27T23:35:20.864Z,96.70
2019-04-27T23:37:50.750Z,96.60
2019-04-27T23:40:21.944Z,96.20
2019-04-27T23:42:52.318Z,96.30
2019-04-27T23:45:22.464Z,96.20
2019-04-27T23:47:51.902Z,96.30
2019-04-27T23:50:21.949Z,96.00
2019-04-27T23:52:58.981Z,95.90
2019-04-27T23:55:30.946Z,95.80
2019-04-27T23:58:00.467Z,96.20
